Time;durP1;ratioP1;P1;durP2;ratioP2;P2;SDS_P1;SDS_P2;PMS_P1;PMS_P2;Temp;Humidity;BMP_temperature;BMP_pressure;BME280_temperature;BME280_humidity;BME280_pressure;Samples;Min_cycle;Max_cycle;Signal;HPM_P1;HPM_P2
2022/08/10 00:00:21;;;;;;;3.35;2.38;;;15.40;86.30;;;;;;5030126;28;20041;-71
2022/08/10 00:02:59;;;;;;;6.97;2.20;;;15.40;86.00;;;;;;5024068;28;20065;-71
2022/08/10 00:05:25;;;;;;;4.25;2.35;;;15.30;86.00;;;;;;5027976;28;20056;-71
2022/08/10 00:07:51;;;;;;;4.25;2.33;;;15.30;85.70;;;;;;5022139;28;20030;-71
2022/08/10 00:10:19;;;;;;;4.63;2.15;;;15.30;86.10;;;;;;5029832;28;20034;-71
2022/08/10 00:12:45;;;;;;;5.22;2.33;;;15.30;86.10;;;;;;5027753;28;20034;-71
2022/08/10 00:15:13;;;;;;;4.60;2.30;;;15.20;86.20;;;;;;5027042;28;20040;-71
2022/08/10 00:17:39;;;;;;;5.53;2.40;;;15.20;86.50;;;;;;5025485;28;20037;-71
2022/08/10 00:20:05;;;;;;;3.90;2.38;;;15.20;86.60;;;;;;5029124;28;20429;-71
2022/08/10 00:22:31;;;;;;;2.78;2.05;;;15.10;85.60;;;;;;5027598;28;20116;-71
2022/08/10 00:24:57;;;;;;;3.78;2.45;;;15.00;85.40;;;;;;5026644;28;20116;-71
2022/08/10 00:27:23;;;;;;;5.25;2.78;;;15.00;85.80;;;;;;5029217;28;20033;-71
2022/08/10 00:29:49;;;;;;;5.57;2.63;;;15.00;86.00;;;;;;5027773;28;20195;-71
2022/08/10 00:32:15;;;;;;;4.72;2.58;;;14.90;86.10;;;;;;5027614;28;20104;-71
2022/08/10 00:34:40;;;;;;;4.97;2.45;;;14.90;86.40;;;;;;5026115;28;20017;-71
2022/08/10 00:37:06;;;;;;;4.28;2.40;;;14.80;86.80;;;;;;5026331;28;20041;-71
2022/08/10 00:39:31;;;;;;;3.65;2.30;;;14.80;87.00;;;;;;5028392;28;20112;-71
2022/08/10 00:41:57;;;;;;;4.03;2.45;;;14.80;86.90;;;;;;5027744;28;20116;-71
2022/08/10 00:44:23;;;;;;;3.60;2.35;;;14.80;87.00;;;;;;5026865;28;20032;-71
2022/08/10 00:46:48;;;;;;;4.25;2.30;;;14.80;87.50;;;;;;5023528;28;20037;-71
2022/08/10 00:49:14;;;;;;;4.82;2.55;;;14.70;87.70;;;;;;5016875;28;20427;-71
2022/08/10 00:51:40;;;;;;;8.63;2.75;;;14.70;87.80;;;;;;5023340;28;20021;-71
2022/08/10 00:54:06;;;;;;;4.90;2.50;;;14.70;87.60;;;;;;5027128;28;20140;-71
2022/08/10 00:56:32;;;;;;;4.22;2.42;;;14.60;87.60;;;;;;5025665;28;20022;-71
2022/08/10 00:58:57;;;;;;;4.95;2.88;;;14.60;88.00;;;;;;5024654;28;20083;-72
2022/08/10 01:01:23;;;;;;;4.60;2.40;;;14.60;88.10;;;;;;5026137;28;20091;-71
2022/08/10 01:03:48;;;;;;;5.50;2.70;;;14.50;88.00;;;;;;5025217;28;20132;-71
2022/08/10 01:06:32;;;;;;;3.90;2.72;;;14.50;88.10;;;;;;5027760;28;20450;-71
2022/08/10 01:09:01;;;;;;;5.35;2.70;;;14.50;88.20;;;;;;5026484;28;20506;-71
2022/08/10 01:11:26;;;;;;;5.07;2.80;;;14.50;88.40;;;;;;5028800;28;20025;-71
2022/08/10 01:14:01;;;;;;;4.93;2.80;;;14.50;88.30;;;;;;5028572;28;20025;-71
2022/08/10 01:16:35;;;;;;;6.10;3.00;;;14.50;89.00;;;;;;5027208;28;20392;-71
2022/08/10 01:19:22;;;;;;;5.97;2.67;;;14.50;88.90;;;;;;5025385;28;20048;-71
2022/08/10 01:22:28;;;;;;;5.90;2.65;;;14.50;88.40;;;;;;5026609;28;20124;-71
2022/08/10 01:25:06;;;;;;;4.55;2.50;;;14.50;88.90;;;;;;5025164;28;20481;-71
2022/08/10 01:27:56;;;;;;;3.75;2.15;;;14.40;88.70;;;;;;5027839;28;20087;-71
2022/08/10 01:30:26;;;;;;;3.75;2.30;;;14.30;88.50;;;;;;5019836;28;20057;-71
2022/08/10 01:33:07;;;;;;;6.97;2.78;;;14.30;88.80;;;;;;5017175;28;20116;-71
2022/08/10 01:35:49;;;;;;;5.85;2.55;;;14.30;88.70;;;;;;5028692;28;20412;-71
2022/08/10 01:38:30;;;;;;;3.95;2.60;;;14.20;88.70;;;;;;5026516;28;20128;-71
2022/08/10 01:41:14;;;;;;;;;;;14.20;89.00;;;;;;5027938;28;20116;-71
2022/08/10 01:43:45;;;;;;;4.63;2.55;;;14.10;88.80;;;;;;5028144;28;19999;-71
2022/08/10 01:46:13;;;;;;;5.93;2.85;;;14.10;88.80;;;;;;5014083;28;20037;-71
2022/08/10 01:48:46;;;;;;;5.63;3.13;;;14.10;89.20;;;;;;5024760;28;20089;-72
2022/08/10 01:51:22;;;;;;;5.30;3.10;;;14.00;89.10;;;;;;5025081;28;20021;-71
2022/08/10 01:53:56;;;;;;;5.22;2.95;;;14.00;89.20;;;;;;5028355;28;20111;-71
2022/08/10 01:56:25;;;;;;;5.78;3.13;;;14.00;89.30;;;;;;5022857;28;20029;-71
2022/08/10 01:58:55;;;;;;;4.25;2.60;;;14.00;89.70;;;;;;5021013;28;20053;-71
2022/08/10 02:01:24;;;;;;;6.65;2.90;;;14.00;89.60;;;;;;5026288;28;20033;-71
2022/08/10 02:03:52;;;;;;;8.15;3.38;;;14.00;89.80;;;;;;5026675;28;20136;-71
2022/08/10 02:06:20;;;;;;;6.10;2.50;;;13.90;89.60;;;;;;5025354;28;20080;-71
2022/08/10 02:08:48;;;;;;;5.15;2.60;;;13.80;89.50;;;;;;5024038;28;20029;-71
2022/08/10 02:11:15;;;;;;;5.57;2.65;;;13.80;89.90;;;;;;5028212;28;20496;-71
2022/08/10 02:13:43;;;;;;;4.63;2.85;;;13.80;90.10;;;;;;5027683;28;20056;-71
2022/08/10 02:16:10;;;;;;;4.57;2.78;;;13.80;90.50;;;;;;5024362;28;20120;-71
2022/08/10 02:18:36;;;;;;;6.28;2.95;;;13.80;90.20;;;;;;5022573;28;20523;-71
2022/08/10 02:21:07;;;;;;;6.30;2.88;;;13.80;90.40;;;;;;5028645;28;20040;-71
2022/08/10 02:23:36;;;;;;;6.10;3.20;;;13.80;90.30;;;;;;5031737;28;20104;-71
2022/08/10 02:26:04;;;;;;;5.18;2.83;;;13.80;90.70;;;;;;5027378;28;20652;-71
2022/08/10 02:28:31;;;;;;;12.95;3.28;;;13.80;90.70;;;;;;5029148;28;20048;-71
2022/08/10 02:31:28;;;;;;;3.90;2.70;;;13.80;90.80;;;;;;5264664;22;20092;-83
2022/08/10 02:34:02;;;;;;;4.85;2.97;;;13.80;90.80;;;;;;4988255;28;20030;-84
2022/08/10 02:36:33;;;;;;;6.63;3.10;;;13.80;90.60;;;;;;5016964;28;20037;-84
2022/08/10 02:39:08;;;;;;;5.45;3.17;;;13.70;90.90;;;;;;5012222;28;20069;-86
2022/08/10 02:41:47;;;;;;;4.68;2.85;;;13.60;90.90;;;;;;5010598;28;20109;-87
2022/08/10 02:44:48;;;;;;;6.70;2.92;;;13.60;91.00;;;;;;5010644;28;20030;-85
2022/08/10 02:47:22;;;;;;;4.53;2.85;;;13.60;90.70;;;;;;5006901;28;20037;-86
2022/08/10 02:50:17;;;;;;;6.72;3.10;;;13.50;90.50;;;;;;5009698;28;20025;-84
2022/08/10 02:52:57;;;;;;;5.05;2.83;;;13.50;90.60;;;;;;5008092;28;20033;-85
2022/08/10 02:55:37;;;;;;;6.00;3.00;;;13.50;90.90;;;;;;5012868;28;20026;-83
2022/08/10 02:58:08;;;;;;;5.43;3.40;;;13.50;91.10;;;;;;5014221;28;20091;-87
2022/08/10 03:00:40;;;;;;;6.30;3.15;;;13.40;91.50;;;;;;5009111;28;20033;-87
2022/08/10 03:03:10;;;;;;;6.03;3.15;;;13.40;91.70;;;;;;5009215;28;20026;-87
2022/08/10 03:06:08;;;;;;;4.90;2.97;;;13.40;91.70;;;;;;5011723;28;20076;-83
2022/08/10 03:08:39;;;;;;;6.97;3.22;;;13.30;91.50;;;;;;5006431;28;20428;-86
2022/08/10 03:11:09;;;;;;;6.47;3.25;;;13.30;91.40;;;;;;5010484;28;20029;-87
2022/08/10 03:13:39;;;;;;;6.82;3.42;;;13.30;91.70;;;;;;5008089;28;20394;-86
2022/08/10 03:16:07;;;;;;;4.25;3.13;;;13.30;91.70;;;;;;5006247;28;20029;-84
2022/08/10 03:18:46;;;;;;;7.22;3.05;;;13.20;91.80;;;;;;4999888;28;20045;-83
2022/08/10 03:21:17;;;;;;;5.18;3.38;;;13.20;91.70;;;;;;5008383;28;20029;-85
2022/08/10 03:23:45;;;;;;;5.95;3.25;;;13.20;91.80;;;;;;5010503;28;20105;-86
2022/08/10 03:26:14;;;;;;;5.18;3.42;;;13.10;92.00;;;;;;5009222;28;20030;-86
2022/08/10 03:28:40;;;;;;;6.35;3.33;;;13.20;92.10;;;;;;5014301;28;20045;-85
2022/08/10 03:31:06;;;;;;;5.95;3.53;;;13.10;92.10;;;;;;5006644;28;20520;-83
2022/08/10 03:33:35;;;;;;;5.55;3.53;;;13.10;92.00;;;;;;5006875;28;20029;-87
2022/08/10 03:36:01;;;;;;;5.20;3.15;;;13.10;91.90;;;;;;5001386;28;21684;-86
2022/08/10 03:38:29;;;;;;;5.38;3.35;;;13.10;91.70;;;;;;5019469;28;20021;-85
2022/08/10 03:41:00;;;;;;;5.65;3.22;;;13.10;91.70;;;;;;5009627;28;20056;-86
2022/08/10 03:43:26;;;;;;;5.70;3.70;;;13.00;91.80;;;;;;5010096;28;20037;-86
2022/08/10 03:45:54;;;;;;;6.35;3.28;;;13.00;92.00;;;;;;5009276;28;20493;-86
2022/08/10 03:48:21;;;;;;;7.03;3.97;;;13.00;92.10;;;;;;5000016;28;20704;-86
2022/08/10 03:50:48;;;;;;;7.25;3.67;;;13.00;92.20;;;;;;5009440;28;20329;-87
2022/08/10 03:53:14;;;;;;;6.85;3.53;;;13.00;92.30;;;;;;5008502;28;20028;-85
2022/08/10 03:55:40;;;;;;;5.68;3.40;;;13.00;92.30;;;;;;5004486;28;20076;-86
2022/08/10 03:58:06;;;;;;;4.45;3.17;;;13.00;92.10;;;;;;5010054;28;20038;-83
2022/08/10 04:00:34;;;;;;;6.68;4.05;;;13.00;92.40;;;;;;5007337;28;20437;-85
2022/08/10 04:03:04;;;;;;;5.72;3.78;;;13.00;92.60;;;;;;5006739;28;20434;-83
2022/08/10 04:05:31;;;;;;;5.82;3.50;;;13.00;92.90;;;;;;5009530;28;20049;-87
2022/08/10 04:07:58;;;;;;;7.38;3.60;;;13.00;92.90;;;;;;5009892;28;20034;-86
2022/08/10 04:10:24;;;;;;;7.35;4.05;;;13.00;93.00;;;;;;5006077;28;20029;-87
2022/08/10 04:12:49;;;;;;;6.28;3.90;;;13.00;92.90;;;;;;5016361;28;20026;-84
2022/08/10 04:15:15;;;;;;;8.10;4.00;;;13.10;93.10;;;;;;5007770;28;20037;-84
2022/08/10 04:17:43;;;;;;;10.85;5.50;;;13.10;93.00;;;;;;5007195;28;20464;-82
2022/08/10 04:20:24;;;;;;;15.38;5.60;;;13.10;93.30;;;;;;5011084;28;20054;-84
2022/08/10 04:22:52;;;;;;;18.27;6.38;;;13.20;93.30;;;;;;5005754;28;20080;-86
2022/08/10 04:25:19;;;;;;;13.02;6.03;;;13.20;93.20;;;;;;5008838;28;20087;-85
2022/08/10 04:27:46;;;;;;;12.20;5.50;;;13.30;93.20;;;;;;5008085;28;20029;-85
2022/08/10 04:30:11;;;;;;;11.57;6.72;;;13.30;93.30;;;;;;5007831;28;20420;-82
2022/08/10 04:32:38;;;;;;;13.93;6.47;;;13.30;93.20;;;;;;5003315;28;20129;-84
2022/08/10 04:35:06;;;;;;;12.23;5.95;;;13.40;93.30;;;;;;5007873;28;20030;-84
2022/08/10 04:37:36;;;;;;;11.82;5.50;;;13.50;93.30;;;;;;5007189;28;20530;-82
2022/08/10 04:40:02;;;;;;;8.82;4.40;;;13.50;93.20;;;;;;5006076;28;20065;-84
2022/08/10 04:42:28;;;;;;;9.48;4.38;;;13.60;93.40;;;;;;5006418;28;20034;-83
2022/08/10 04:44:53;;;;;;;6.53;3.85;;;13.50;93.30;;;;;;5005428;28;20032;-83
2022/08/10 04:47:19;;;;;;;6.85;3.97;;;13.60;93.20;;;;;;5007568;28;20473;-84
2022/08/10 04:49:44;;;;;;;7.13;3.92;;;13.60;93.40;;;;;;5004656;28;20076;-84
2022/08/10 04:52:10;;;;;;;5.30;3.50;;;13.70;93.40;;;;;;5006931;28;20034;-84
2022/08/10 04:54:35;;;;;;;7.28;3.55;;;13.70;93.30;;;;;;5005893;28;20092;-84
2022/08/10 04:57:01;;;;;;;7.10;3.92;;;13.80;93.30;;;;;;4997267;28;20488;-83
2022/08/10 04:59:26;;;;;;;11.05;3.72;;;13.90;93.40;;;;;;4998217;28;20116;-84
2022/08/10 16:53:34;;;;;;;2.70;0.65;;;34.40;29.00;;;;;;5109676;23;20316;-89
2022/08/10 16:56:04;;;;;;;1.60;0.70;;;34.90;28.50;;;;;;4872760;24;20062;-70
2022/08/10 16:58:35;;;;;;;1.15;0.60;;;34.30;28.10;;;;;;4855197;29;20503;-72
2022/08/10 17:01:21;;;;;;;1.83;0.70;;;35.00;27.70;;;;;;4848401;29;20044;-70
2022/08/10 17:03:50;;;;;;;3.70;0.73;;;34.10;28.90;;;;;;4849713;29;20033;-72
2022/08/10 17:06:26;;;;;;;2.75;0.60;;;34.10;27.90;;;;;;4854968;29;20036;-72
2022/08/10 17:08:54;;;;;;;1.75;0.63;;;33.60;28.70;;;;;;4854235;29;20290;-72
2022/08/10 17:11:26;;;;;;;1.63;0.57;;;33.40;29.30;;;;;;4854973;29;20120;-72
2022/08/10 17:13:57;;;;;;;5.38;0.70;;;32.90;29.30;;;;;;4854956;29;20029;-72
2022/08/10 17:16:26;;;;;;;2.75;0.70;;;32.00;31.00;;;;;;4851357;29;20124;-72
2022/08/10 17:18:55;;;;;;;2.55;0.60;;;31.20;32.70;;;;;;4853170;29;20350;-72
2022/08/10 17:21:24;;;;;;;2.25;0.80;;;30.30;34.00;;;;;;4855459;29;20069;-74
2022/08/10 17:23:53;;;;;;;4.93;0.98;;;29.50;35.90;;;;;;4851521;29;20136;-72
2022/08/10 17:26:22;;;;;;;0.82;0.50;;;28.70;37.30;;;;;;4852552;29;20049;-72
2022/08/10 17:28:49;;;;;;;2.60;0.93;;;28.50;38.20;;;;;;4837288;29;20549;-72
2022/08/10 17:31:31;;;;;;;1.85;0.85;;;28.00;39.10;;;;;;4851704;29;20072;-72
2022/08/10 17:34:02;;;;;;;1.50;0.50;;;27.80;39.10;;;;;;4855098;29;20037;-72
2022/08/10 17:36:30;;;;;;;;;;;27.50;40.50;;;;;;4853852;29;20033;-71
2022/08/10 17:38:55;;;;;;;3.67;0.98;;;27.10;42.10;;;;;;4851299;29;19922;-72
2022/08/10 17:41:24;;;;;;;3.00;1.20;;;26.70;43.20;;;;;;4854483;29;20038;-71
2022/08/10 17:43:59;;;;;;;2.55;0.82;;;26.50;42.40;;;;;;4849328;29;20435;-72
2022/08/10 17:46:28;;;;;;;3.95;0.90;;;26.40;43.30;;;;;;4849646;29;20033;-71
2022/08/10 17:48:54;;;;;;;1.73;0.88;;;26.30;43.60;;;;;;4849258;29;20137;-70
2022/08/10 17:51:21;;;;;;;2.25;0.90;;;26.10;44.50;;;;;;4850753;29;20106;-71
2022/08/10 17:53:50;;;;;;;2.55;1.00;;;26.00;44.10;;;;;;4856158;29;20188;-73
2022/08/10 17:56:19;;;;;;;3.72;1.70;;;25.90;45.60;;;;;;4850849;29;20057;-70
2022/08/10 17:58:52;;;;;;;3.10;1.40;;;25.70;45.50;;;;;;4856852;29;20143;-71
2022/08/10 18:01:24;;;;;;;5.60;2.60;;;25.60;45.80;;;;;;4858582;29;20041;-72
2022/08/10 18:03:52;;;;;;;3.15;1.60;;;25.50;47.00;;;;;;4857646;29;20485;-73
2022/08/10 18:06:19;;;;;;;2.63;1.30;;;25.50;46.10;;;;;;4857287;29;20026;-71
2022/08/10 18:09:13;;;;;;;2.80;1.08;;;25.40;47.10;;;;;;4857957;29;20037;-72
2022/08/10 18:11:44;;;;;;;4.00;1.08;;;25.20;48.30;;;;;;4849335;29;20044;-72
2022/08/10 18:14:11;;;;;;;2.08;1.23;;;25.00;48.60;;;;;;4858696;29;20184;-72
2022/08/10 18:16:39;;;;;;;4.28;1.17;;;24.90;50.00;;;;;;4856762;29;20502;-73
2022/08/10 18:19:11;;;;;;;7.13;1.10;;;24.80;49.80;;;;;;4863159;29;20172;-73
2022/08/10 18:21:42;;;;;;;3.42;1.30;;;24.60;50.00;;;;;;4858829;29;20045;-73
2022/08/10 18:24:15;;;;;;;1.98;0.93;;;24.50;50.20;;;;;;4856783;29;20041;-72
2022/08/10 18:26:43;;;;;;;2.60;0.90;;;24.30;50.80;;;;;;4859009;29;20557;-73
2022/08/10 18:29:19;;;;;;;3.47;1.10;;;24.30;50.90;;;;;;4853822;29;20029;-73
2022/08/10 18:31:46;;;;;;;2.08;1.13;;;24.10;51.60;;;;;;4850240;29;20462;-73
2022/08/10 18:34:18;;;;;;;3.25;1.20;;;24.00;52.20;;;;;;4858456;29;20431;-72
2022/08/10 18:36:45;;;;;;;3.30;1.20;;;23.80;53.20;;;;;;4859387;29;20358;-72
2022/08/10 18:39:14;;;;;;;2.00;0.90;;;23.70;53.50;;;;;;4856000;29;20090;-70
2022/08/10 18:41:44;;;;;;;2.60;1.30;;;23.50;53.50;;;;;;4861362;29;20042;-71
2022/08/10 18:44:15;;;;;;;4.57;1.10;;;23.40;53.90;;;;;;4862641;29;20037;-71
2022/08/10 18:46:54;;;;;;;4.55;1.50;;;23.30;54.40;;;;;;4860737;29;20373;-71
2022/08/10 18:49:37;;;;;;;3.53;1.50;;;23.10;54.80;;;;;;4856762;29;20144;-70
2022/08/10 18:52:07;;;;;;;3.90;1.20;;;23.00;55.00;;;;;;4856568;29;20086;-71
2022/08/10 18:54:37;;;;;;;3.38;1.27;;;22.90;54.90;;;;;;4851035;29;20212;-70
2022/08/10 18:57:25;;;;;;;2.77;1.17;;;22.80;55.30;;;;;;4855871;29;20537;-72
2022/08/10 19:00:12;;;;;;;2.85;1.30;;;22.70;55.50;;;;;;4856643;29;20083;-72
2022/08/10 19:03:15;;;;;;;3.15;1.35;;;22.60;57.00;;;;;;4855028;29;20038;-74
2022/08/10 19:06:02;;;;;;;3.63;1.38;;;22.50;56.90;;;;;;4845990;29;20734;-72
2022/08/10 19:08:42;;;;;;;3.90;1.60;;;22.30;57.50;;;;;;4849598;29;20365;-73
2022/08/10 19:11:34;;;;;;;4.63;1.50;;;22.20;57.60;;;;;;4856629;29;20549;-71
2022/08/10 19:14:13;;;;;;;3.28;1.45;;;22.10;57.60;;;;;;4854292;29;20060;-73
2022/08/10 19:17:14;;;;;;;3.10;1.30;;;22.00;58.60;;;;;;4856887;29;20132;-70
2022/08/10 19:19:49;;;;;;;;;;;21.90;59.20;;;;;;4847837;29;20039;-71
2022/08/10 19:22:24;;;;;;;5.07;1.45;;;21.70;60.10;;;;;;4851224;29;20548;-73
2022/08/10 19:25:14;;;;;;;3.58;1.50;;;21.60;60.00;;;;;;4850438;29;20041;-72
2022/08/10 19:27:49;;;;;;;3.05;1.45;;;21.50;60.70;;;;;;4855481;29;20042;-72
2022/08/10 19:30:16;;;;;;;3.03;1.55;;;21.40;60.80;;;;;;4855718;29;20036;-71
2022/08/10 19:33:03;;;;;;;3.88;1.67;;;21.30;61.00;;;;;;4856892;29;20037;-71
2022/08/10 19:35:51;;;;;;;4.40;1.27;;;21.20;62.00;;;;;;4855875;29;20049;-72
2022/08/10 19:38:47;;;;;;;2.90;1.67;;;21.00;62.20;;;;;;4856877;29;20461;-72
2022/08/10 19:41:22;;;;;;;2.78;1.58;;;21.00;62.50;;;;;;4859212;29;20029;-71
2022/08/10 19:44:14;;;;;;;4.18;1.67;;;20.90;62.60;;;;;;4858073;29;20029;-72
2022/08/10 19:46:53;;;;;;;4.47;1.50;;;20.80;63.20;;;;;;4829922;29;20056;-74
2022/08/10 19:49:43;;;;;;;3.42;1.67;;;20.80;63.40;;;;;;4856320;29;20084;-70
2022/08/10 19:52:45;;;;;;;6.32;1.50;;;20.70;64.10;;;;;;4857460;29;20044;-72
2022/08/10 19:55:16;;;;;;;4.68;1.55;;;20.60;64.70;;;;;;4853809;29;20033;-71
2022/08/10 19:58:01;;;;;;;4.18;1.38;;;20.50;65.30;;;;;;4857587;29;20601;-71
2022/08/10 20:01:05;;;;;;;5.45;1.60;;;20.50;66.00;;;;;;4856933;29;20136;-70
2022/08/10 20:03:43;;;;;;;5.47;1.52;;;20.40;66.30;;;;;;4851369;29;20040;-72
2022/08/10 20:06:18;;;;;;;3.78;1.48;;;20.50;65.30;;;;;;4852971;29;20029;-70
2022/08/10 20:08:53;;;;;;;3.17;1.58;;;20.50;65.20;;;;;;4854824;29;20469;-71
2022/08/10 20:11:31;;;;;;;7.35;1.65;;;20.50;65.90;;;;;;4857464;29;20037;-71
2022/08/10 20:14:08;;;;;;;5.80;1.70;;;20.50;65.80;;;;;;4856179;29;20040;-71
2022/08/10 20:16:36;;;;;;;5.43;1.55;;;20.50;65.60;;;;;;4857480;29;20055;-70
2022/08/10 20:19:14;;;;;;;4.40;1.33;;;20.50;66.00;;;;;;4856638;29;20033;-69
2022/08/10 20:21:54;;;;;;;2.85;1.58;;;20.40;66.30;;;;;;4858180;29;20128;-70
2022/08/10 20:24:53;;;;;;;6.07;1.55;;;20.40;66.50;;;;;;4852999;29;20053;-69
2022/08/10 20:27:31;;;;;;;2.75;1.50;;;20.40;66.50;;;;;;4857695;29;20441;-70
2022/08/10 20:30:11;;;;;;;4.53;1.55;;;20.40;67.00;;;;;;4856778;29;20393;-72
2022/08/10 20:32:47;;;;;;;2.65;1.30;;;20.30;67.30;;;;;;4850319;29;20568;-70
2022/08/10 20:35:43;;;;;;;4.18;1.50;;;20.30;67.50;;;;;;4849385;29;20037;-70
2022/08/10 20:38:13;;;;;;;4.20;1.80;;;20.20;68.10;;;;;;4848747;29;20365;-69
2022/08/10 20:40:55;;;;;;;3.33;1.20;;;20.10;68.30;;;;;;4855469;29;20045;-70
2022/08/10 20:43:40;;;;;;;4.63;1.45;;;20.10;68.00;;;;;;4854911;29;20061;-71
2022/08/10 20:46:19;;;;;;;4.22;1.90;;;20.10;68.40;;;;;;4854480;29;20041;-70
2022/08/10 20:48:54;;;;;;;4.80;1.52;;;20.10;68.30;;;;;;4836808;29;20037;-70
2022/08/10 20:51:25;;;;;;;3.80;1.50;;;20.10;68.40;;;;;;4854803;29;20074;-70
2022/08/10 20:53:56;;;;;;;4.38;1.40;;;20.00;68.50;;;;;;4851391;29;20034;-71
2022/08/10 20:56:41;;;;;;;2.93;1.50;;;20.00;69.10;;;;;;4852400;29;20040;-70
2022/08/10 20:59:21;;;;;;;4.60;1.55;;;19.90;69.30;;;;;;4835004;29;20044;-70
2022/08/10 21:02:07;;;;;;;4.27;1.27;;;20.00;69.10;;;;;;4857150;29;20485;-70
2022/08/10 21:04:58;;;;;;;6.63;1.60;;;20.00;69.30;;;;;;4855958;29;20357;-70
2022/08/10 21:07:51;;;;;;;3.17;1.70;;;19.80;69.30;;;;;;4855623;29;20523;-70
2022/08/10 21:10:27;;;;;;;5.07;1.23;;;19.80;69.90;;;;;;4858574;29;20415;-71
2022/08/10 21:13:06;;;;;;;2.60;1.25;;;19.70;70.30;;;;;;4861929;29;20133;-72
2022/08/10 21:16:19;;;;;;;3.50;1.67;;;19.70;69.90;;;;;;4857445;29;20037;-70
2022/08/10 21:19:01;;;;;;;6.63;1.75;;;19.60;70.10;;;;;;4854345;29;20154;-70
2022/08/10 21:21:46;;;;;;;4.85;1.73;;;19.60;70.30;;;;;;4865376;29;20440;-70
2022/08/10 21:24:22;;;;;;;3.47;1.77;;;19.50;70.50;;;;;;4849932;29;20065;-70
2022/08/10 22:51:21;;;;;;;3.65;1.70;;;18.40;76.00;;;;;;4847583;29;20036;-69
2022/08/10 22:59:30;;;;;;;4.72;2.08;;;18.10;76.60;;;;;;4854226;29;20060;-70
2022/08/10 23:02:04;;;;;;;4.43;1.58;;;18.10;76.80;;;;;;4852391;29;20029;-70
2022/08/10 23:04:32;;;;;;;5.28;1.92;;;18.00;77.10;;;;;;4854574;29;20045;-70
2022/08/10 23:07:08;;;;;;;4.20;1.77;;;18.00;77.30;;;;;;4856937;29;20041;-70
2022/08/10 23:09:35;;;;;;;5.93;2.05;;;18.00;77.30;;;;;;4858724;29;20048;-70
2022/08/10 23:12:08;;;;;;;4.28;2.13;;;17.90;77.60;;;;;;4858777;29;20060;-70
2022/08/10 23:20:09;;;;;;;8.80;2.23;;;17.70;77.70;;;;;;4856273;29;20033;-69
2022/08/10 23:22:36;;;;;;;;;;;17.70;78.40;;;;;;4859494;29;20326;-70
2022/08/10 23:25:07;;;;;;;3.92;1.98;;;17.70;78.40;;;;;;4854087;29;19913;-70
2022/08/10 23:27:36;;;;;;;5.15;1.80;;;17.60;78.20;;;;;;4854429;29;20045;-71
2022/08/10 23:30:02;;;;;;;6.03;2.53;;;17.60;78.20;;;;;;4854183;29;20073;-70
2022/08/10 23:32:33;;;;;;;8.27;2.53;;;17.50;78.60;;;;;;4850238;29;20385;-70
2022/08/10 23:35:00;;;;;;;6.73;1.90;;;17.50;79.10;;;;;;4857547;29;20427;-70
2022/08/10 23:37:29;;;;;;;4.30;1.83;;;17.40;79.40;;;;;;4856313;29;20286;-70
2022/08/10 23:39:57;;;;;;;4.18;2.00;;;17.40;79.40;;;;;;4856226;29;20034;-70
2022/08/10 23:42:24;;;;;;;6.35;2.08;;;17.30;79.80;;;;;;4853843;29;20105;-70
2022/08/10 23:44:52;;;;;;;5.85;2.03;;;17.30;80.00;;;;;;4859367;29;20124;-70
2022/08/10 23:47:21;;;;;;;6.80;2.22;;;17.30;80.10;;;;;;4848322;29;20121;-70
2022/08/10 23:49:59;;;;;;;5.25;2.20;;;17.30;80.20;;;;;;4857118;29;20034;-71
2022/08/10 23:52:28;;;;;;;6.90;2.53;;;17.30;80.10;;;;;;4855585;29;20064;-70
2022/08/10 23:54:58;;;;;;;5.00;2.05;;;17.20;80.00;;;;;;4857050;29;20112;-70
2022/08/10 23:57:26;;;;;;;4.15;2.38;;;17.30;80.30;;;;;;4855983;29;20156;-70
2022/08/10 23:59:57;;;;;;;10.93;2.33;;;17.30;80.10;;;;;;4858340;29;20029;-70
